sensor_id;sensor_type;location;lat;lon;timestamp;P1;durP1;ratioP1;P2;durP2;ratioP2
74656;SDS011;63185;45.642;13.764;2023-03-23T00:02:25;20.58;;;11.95;;
74656;SDS011;63185;45.642;13.764;2023-03-23T00:04:57;23.73;;;11.52;;
74656;SDS011;63185;45.642;13.764;2023-03-23T00:07:25;20.60;;;10.93;;
74656;SDS011;63185;45.642;13.764;2023-03-23T00:09:52;20.67;;;12.02;;
74656;SDS011;63185;45.642;13.764;2023-03-23T00:12:20;20.52;;;12.18;;
74656;SDS011;63185;45.642;13.764;2023-03-23T00:15:08;21.30;;;11.25;;
74656;SDS011;63185;45.642;13.764;2023-03-23T00:17:38;22.83;;;12.07;;
74656;SDS011;63185;45.642;13.764;2023-03-23T00:20:05;20.98;;;11.63;;
74656;SDS011;63185;45.642;13.764;2023-03-23T00:22:32;20.70;;;11.65;;
74656;SDS011;63185;45.642;13.764;2023-03-23T00:25:02;18.98;;;11.32;;
74656;SDS011;63185;45.642;13.764;2023-03-23T00:27:29;20.65;;;10.90;;
74656;SDS011;63185;45.642;13.764;2023-03-23T00:29:55;18.83;;;10.63;;
74656;SDS011;63185;45.642;13.764;2023-03-23T00:32:22;17.60;;;10.15;;
74656;SDS011;63185;45.642;13.764;2023-03-23T00:34:52;20.85;;;10.55;;
74656;SDS011;63185;45.642;13.764;2023-03-23T00:37:18;17.48;;;10.40;;
74656;SDS011;63185;45.642;13.764;2023-03-23T00:39:44;19.83;;;10.65;;
74656;SDS011;63185;45.642;13.764;2023-03-23T00:42:12;21.00;;;10.30;;
74656;SDS011;63185;45.642;13.764;2023-03-23T00:44:39;20.15;;;10.93;;
74656;SDS011;63185;45.642;13.764;2023-03-23T00:47:05;20.90;;;10.15;;
74656;SDS011;63185;45.642;13.764;2023-03-23T00:49:32;16.40;;;10.20;;
74656;SDS011;63185;45.642;13.764;2023-03-23T00:51:59;22.55;;;10.95;;
74656;SDS011;63185;45.642;13.764;2023-03-23T00:54:26;18.70;;;10.70;;
74656;SDS011;63185;45.642;13.764;2023-03-23T00:56:51;18.38;;;10.32;;
74656;SDS011;63185;45.642;13.764;2023-03-23T00:59:18;18.80;;;9.90;;
74656;SDS011;63185;45.642;13.764;2023-03-23T01:01:45;17.27;;;9.00;;
74656;SDS011;63185;45.642;13.764;2023-03-23T01:04:11;18.08;;;9.23;;
74656;SDS011;63185;45.642;13.764;2023-03-23T01:06:38;18.42;;;9.95;;
74656;SDS011;63185;45.642;13.764;2023-03-23T01:09:06;14.18;;;8.82;;
74656;SDS011;63185;45.642;13.764;2023-03-23T01:11:33;16.05;;;8.00;;
74656;SDS011;63185;45.642;13.764;2023-03-23T01:13:59;14.38;;;8.10;;
74656;SDS011;63185;45.642;13.764;2023-03-23T01:16:26;15.02;;;7.57;;
74656;SDS011;63185;45.642;13.764;2023-03-23T01:18:52;12.52;;;6.70;;
74656;SDS011;63185;45.642;13.764;2023-03-23T01:21:19;16.15;;;7.00;;
74656;SDS011;63185;45.642;13.764;2023-03-23T01:23:45;12.75;;;7.20;;
74656;SDS011;63185;45.642;13.764;2023-03-23T01:26:13;16.15;;;8.90;;
74656;SDS011;63185;45.642;13.764;2023-03-23T01:28:43;21.52;;;11.35;;
74656;SDS011;63185;45.642;13.764;2023-03-23T01:31:10;19.90;;;11.25;;
74656;SDS011;63185;45.642;13.764;2023-03-23T01:33:47;15.00;;;8.75;;
74656;SDS011;63185;45.642;13.764;2023-03-23T01:36:18;17.83;;;9.00;;
74656;SDS011;63185;45.642;13.764;2023-03-23T01:38:46;17.95;;;8.95;;
74656;SDS011;63185;45.642;13.764;2023-03-23T01:41:14;15.93;;;8.00;;
74656;SDS011;63185;45.642;13.764;2023-03-23T01:46:42;12.90;;;7.50;;
74656;SDS011;63185;45.642;13.764;2023-03-23T01:51:37;15.82;;;7.60;;
74656;SDS011;63185;45.642;13.764;2023-03-23T01:54:11;13.20;;;6.90;;
74656;SDS011;63185;45.642;13.764;2023-03-23T01:56:40;12.30;;;7.33;;
74656;SDS011;63185;45.642;13.764;2023-03-23T01:59:10;14.55;;;6.90;;
74656;SDS011;63185;45.642;13.764;2023-03-23T02:01:37;12.98;;;7.40;;
74656;SDS011;63185;45.642;13.764;2023-03-23T02:04:09;11.57;;;7.30;;
74656;SDS011;63185;45.642;13.764;2023-03-23T02:06:38;11.30;;;7.03;;
74656;SDS011;63185;45.642;13.764;2023-03-23T02:09:03;12.18;;;7.55;;
74656;SDS011;63185;45.642;13.764;2023-03-23T02:11:31;15.15;;;7.45;;
74656;SDS011;63185;45.642;13.764;2023-03-23T02:13:57;14.38;;;7.40;;
74656;SDS011;63185;45.642;13.764;2023-03-23T02:27:04;11.25;;;7.30;;
74656;SDS011;63185;45.642;13.764;2023-03-23T02:29:46;13.60;;;7.57;;
74656;SDS011;63185;45.642;13.764;2023-03-23T02:35:34;11.95;;;7.80;;
74656;SDS011;63185;45.642;13.764;2023-03-23T02:38:04;12.88;;;7.45;;
74656;SDS011;63185;45.642;13.764;2023-03-23T02:40:37;11.60;;;7.57;;
74656;SDS011;63185;45.642;13.764;2023-03-23T02:43:10;12.73;;;7.78;;
74656;SDS011;63185;45.642;13.764;2023-03-23T02:45:39;12.32;;;7.80;;
74656;SDS011;63185;45.642;13.764;2023-03-23T02:48:08;12.25;;;7.53;;
74656;SDS011;63185;45.642;13.764;2023-03-23T02:50:36;11.50;;;7.30;;
74656;SDS011;63185;45.642;13.764;2023-03-23T02:53:06;11.57;;;7.18;;
74656;SDS011;63185;45.642;13.764;2023-03-23T02:55:36;9.50;;;6.85;;
74656;SDS011;63185;45.642;13.764;2023-03-23T02:58:06;13.70;;;7.45;;
74656;SDS011;63185;45.642;13.764;2023-03-23T03:00:35;12.57;;;7.67;;
74656;SDS011;63185;45.642;13.764;2023-03-23T03:03:02;12.85;;;7.82;;
74656;SDS011;63185;45.642;13.764;2023-03-23T03:11:07;13.23;;;7.80;;
74656;SDS011;63185;45.642;13.764;2023-03-23T03:21:36;11.68;;;7.53;;
74656;SDS011;63185;45.642;13.764;2023-03-23T03:24:06;11.43;;;6.80;;
74656;SDS011;63185;45.642;13.764;2023-03-23T03:29:06;13.05;;;7.65;;
74656;SDS011;63185;45.642;13.764;2023-03-23T03:31:34;13.63;;;8.65;;
74656;SDS011;63185;45.642;13.764;2023-03-23T03:34:03;16.00;;;8.32;;
74656;SDS011;63185;45.642;13.764;2023-03-23T03:36:29;11.65;;;7.82;;
74656;SDS011;63185;45.642;13.764;2023-03-23T03:39:00;14.07;;;7.88;;
74656;SDS011;63185;45.642;13.764;2023-03-23T03:41:32;12.20;;;8.13;;
74656;SDS011;63185;45.642;13.764;2023-03-23T03:43:58;12.15;;;7.72;;
74656;SDS011;63185;45.642;13.764;2023-03-23T03:46:24;13.57;;;7.93;;
74656;SDS011;63185;45.642;13.764;2023-03-23T03:48:53;16.30;;;7.90;;
74656;SDS011;63185;45.642;13.764;2023-03-23T03:51:18;11.82;;;7.72;;
74656;SDS011;63185;45.642;13.764;2023-03-23T03:53:44;15.38;;;7.57;;
74656;SDS011;63185;45.642;13.764;2023-03-23T03:56:10;10.73;;;7.10;;
74656;SDS011;63185;45.642;13.764;2023-03-23T03:58:36;14.40;;;8.50;;
74656;SDS011;63185;45.642;13.764;2023-03-23T04:01:02;12.82;;;8.13;;
74656;SDS011;63185;45.642;13.764;2023-03-23T04:03:28;10.88;;;7.35;;
74656;SDS011;63185;45.642;13.764;2023-03-23T04:05:54;12.57;;;7.78;;
74656;SDS011;63185;45.642;13.764;2023-03-23T04:08:21;13.32;;;7.65;;
74656;SDS011;63185;45.642;13.764;2023-03-23T04:10:48;11.80;;;7.28;;
74656;SDS011;63185;45.642;13.764;2023-03-23T04:13:14;12.13;;;7.75;;
74656;SDS011;63185;45.642;13.764;2023-03-23T04:15:40;15.68;;;9.10;;
74656;SDS011;63185;45.642;13.764;2023-03-23T04:18:06;13.27;;;8.02;;
74656;SDS011;63185;45.642;13.764;2023-03-23T04:20:31;15.45;;;8.45;;
74656;SDS011;63185;45.642;13.764;2023-03-23T04:22:59;11.70;;;8.45;;
74656;SDS011;63185;45.642;13.764;2023-03-23T04:25:27;12.07;;;8.38;;
74656;SDS011;63185;45.642;13.764;2023-03-23T04:27:52;14.18;;;9.02;;
74656;SDS011;63185;45.642;13.764;2023-03-23T04:30:22;12.00;;;8.25;;
74656;SDS011;63185;45.642;13.764;2023-03-23T04:32:51;13.90;;;8.32;;
74656;SDS011;63185;45.642;13.764;2023-03-23T04:35:20;13.50;;;8.70;;
74656;SDS011;63185;45.642;13.764;2023-03-23T04:37:48;15.73;;;8.52;;
74656;SDS011;63185;45.642;13.764;2023-03-23T04:40:15;13.30;;;8.57;;
74656;SDS011;63185;45.642;13.764;2023-03-23T04:42:42;12.85;;;9.02;;
74656;SDS011;63185;45.642;13.764;2023-03-23T04:45:16;11.68;;;8.52;;
74656;SDS011;63185;45.642;13.764;2023-03-23T04:47:47;11.63;;;8.10;;
74656;SDS011;63185;45.642;13.764;2023-03-23T04:50:23;12.93;;;8.13;;
74656;SDS011;63185;45.642;13.764;2023-03-23T04:52:51;13.25;;;7.45;;
74656;SDS011;63185;45.642;13.764;2023-03-23T04:55:19;9.02;;;6.78;;
74656;SDS011;63185;45.642;13.764;2023-03-23T04:57:46;11.20;;;6.85;;
74656;SDS011;63185;45.642;13.764;2023-03-23T05:00:12;12.35;;;8.40;;
74656;SDS011;63185;45.642;13.764;2023-03-23T05:02:45;11.10;;;7.43;;
74656;SDS011;63185;45.642;13.764;2023-03-23T05:05:12;12.02;;;6.50;;
74656;SDS011;63185;45.642;13.764;2023-03-23T05:07:39;10.30;;;6.35;;
74656;SDS011;63185;45.642;13.764;2023-03-23T05:10:07;9.20;;;6.22;;
74656;SDS011;63185;45.642;13.764;2023-03-23T05:12:35;11.07;;;6.18;;
74656;SDS011;63185;45.642;13.764;2023-03-23T05:15:02;13.07;;;6.72;;
74656;SDS011;63185;45.642;13.764;2023-03-23T05:17:28;8.38;;;5.70;;
74656;SDS011;63185;45.642;13.764;2023-03-23T05:19:55;10.43;;;5.70;;
74656;SDS011;63185;45.642;13.764;2023-03-23T05:22:21;9.00;;;5.50;;
74656;SDS011;63185;45.642;13.764;2023-03-23T05:24:48;10.20;;;5.85;;
74656;SDS011;63185;45.642;13.764;2023-03-23T05:27:17;8.82;;;5.68;;
74656;SDS011;63185;45.642;13.764;2023-03-23T05:29:44;8.13;;;5.40;;
74656;SDS011;63185;45.642;13.764;2023-03-23T05:32:13;10.25;;;5.80;;
74656;SDS011;63185;45.642;13.764;2023-03-23T05:34:40;11.02;;;6.00;;
74656;SDS011;63185;45.642;13.764;2023-03-23T05:37:08;9.50;;;5.72;;
74656;SDS011;63185;45.642;13.764;2023-03-23T05:39:34;10.50;;;6.22;;
74656;SDS011;63185;45.642;13.764;2023-03-23T05:42:01;9.88;;;6.28;;
74656;SDS011;63185;45.642;13.764;2023-03-23T05:44:29;13.32;;;6.70;;
74656;SDS011;63185;45.642;13.764;2023-03-23T05:46:55;10.13;;;7.25;;
74656;SDS011;63185;45.642;13.764;2023-03-23T05:49:21;11.02;;;7.32;;
74656;SDS011;63185;45.642;13.764;2023-03-23T05:51:47;12.05;;;7.55;;
74656;SDS011;63185;45.642;13.764;2023-03-23T05:54:15;11.27;;;7.93;;
74656;SDS011;63185;45.642;13.764;2023-03-23T05:56:41;11.35;;;7.60;;
74656;SDS011;63185;45.642;13.764;2023-03-23T05:59:07;12.25;;;8.07;;
74656;SDS011;63185;45.642;13.764;2023-03-23T06:01:36;12.38;;;8.00;;
74656;SDS011;63185;45.642;13.764;2023-03-23T06:04:02;12.10;;;8.80;;
74656;SDS011;63185;45.642;13.764;2023-03-23T06:06:29;39.97;;;9.98;;
74656;SDS011;63185;45.642;13.764;2023-03-23T06:08:56;25.00;;;10.15;;
74656;SDS011;63185;45.642;13.764;2023-03-23T06:11:22;15.80;;;10.25;;
74656;SDS011;63185;45.642;13.764;2023-03-23T06:13:48;16.95;;;9.60;;
74656;SDS011;63185;45.642;13.764;2023-03-23T06:16:14;16.77;;;9.85;;
74656;SDS011;63185;45.642;13.764;2023-03-23T06:18:39;20.60;;;9.63;;
74656;SDS011;63185;45.642;13.764;2023-03-23T06:21:06;20.02;;;10.15;;
74656;SDS011;63185;45.642;13.764;2023-03-23T06:23:33;17.92;;;9.60;;
74656;SDS011;63185;45.642;13.764;2023-03-23T06:26:00;16.75;;;9.75;;
74656;SDS011;63185;45.642;13.764;2023-03-23T06:28:28;16.70;;;9.18;;
74656;SDS011;63185;45.642;13.764;2023-03-23T06:30:58;16.58;;;8.90;;
74656;SDS011;63185;45.642;13.764;2023-03-23T06:33:29;16.23;;;9.40;;
74656;SDS011;63185;45.642;13.764;2023-03-23T06:35:55;24.40;;;14.75;;
74656;SDS011;63185;45.642;13.764;2023-03-23T06:38:22;35.72;;;21.75;;
74656;SDS011;63185;45.642;13.764;2023-03-23T06:40:51;27.00;;;18.73;;
74656;SDS011;63185;45.642;13.764;2023-03-23T06:43:20;18.98;;;9.35;;
74656;SDS011;63185;45.642;13.764;2023-03-23T06:45:46;12.52;;;8.93;;
74656;SDS011;63185;45.642;13.764;2023-03-23T06:48:13;17.50;;;9.45;;
74656;SDS011;63185;45.642;13.764;2023-03-23T06:50:42;15.25;;;10.50;;
74656;SDS011;63185;45.642;13.764;2023-03-23T06:53:09;14.48;;;10.80;;
74656;SDS011;63185;45.642;13.764;2023-03-23T06:55:36;17.50;;;10.80;;
74656;SDS011;63185;45.642;13.764;2023-03-23T06:58:08;20.30;;;12.63;;
74656;SDS011;63185;45.642;13.764;2023-03-23T07:00:34;20.08;;;12.85;;
74656;SDS011;63185;45.642;13.764;2023-03-23T07:02:59;18.38;;;12.55;;
74656;SDS011;63185;45.642;13.764;2023-03-23T07:05:26;19.58;;;12.65;;
74656;SDS011;63185;45.642;13.764;2023-03-23T07:07:52;17.45;;;12.75;;
74656;SDS011;63185;45.642;13.764;2023-03-23T07:10:18;20.33;;;12.57;;
74656;SDS011;63185;45.642;13.764;2023-03-23T07:12:44;17.60;;;12.15;;
74656;SDS011;63185;45.642;13.764;2023-03-23T07:15:10;19.92;;;13.13;;
74656;SDS011;63185;45.642;13.764;2023-03-23T07:17:37;15.85;;;11.70;;
74656;SDS011;63185;45.642;13.764;2023-03-23T07:20:05;19.75;;;12.70;;
74656;SDS011;63185;45.642;13.764;2023-03-23T07:22:32;21.65;;;12.35;;
74656;SDS011;63185;45.642;13.764;2023-03-23T07:24:58;20.73;;;12.73;;
74656;SDS011;63185;45.642;13.764;2023-03-23T07:27:24;19.25;;;13.07;;
74656;SDS011;63185;45.642;13.764;2023-03-23T07:29:50;20.77;;;12.63;;
74656;SDS011;63185;45.642;13.764;2023-03-23T07:32:16;21.08;;;12.43;;
74656;SDS011;63185;45.642;13.764;2023-03-23T07:34:42;19.92;;;12.52;;
74656;SDS011;63185;45.642;13.764;2023-03-23T07:37:08;20.95;;;12.90;;
74656;SDS011;63185;45.642;13.764;2023-03-23T07:39:34;16.40;;;12.48;;
74656;SDS011;63185;45.642;13.764;2023-03-23T07:42:01;19.80;;;12.80;;
74656;SDS011;63185;45.642;13.764;2023-03-23T07:44:27;17.75;;;12.43;;
74656;SDS011;63185;45.642;13.764;2023-03-23T07:46:52;20.55;;;13.38;;
74656;SDS011;63185;45.642;13.764;2023-03-23T07:49:18;20.08;;;13.98;;
74656;SDS011;63185;45.642;13.764;2023-03-23T07:51:44;19.45;;;13.55;;
74656;SDS011;63185;45.642;13.764;2023-03-23T07:54:11;20.45;;;13.80;;
74656;SDS011;63185;45.642;13.764;2023-03-23T07:56:37;22.30;;;14.20;;
74656;SDS011;63185;45.642;13.764;2023-03-23T07:59:06;20.17;;;13.50;;
74656;SDS011;63185;45.642;13.764;2023-03-23T08:01:32;20.55;;;13.27;;
74656;SDS011;63185;45.642;13.764;2023-03-23T08:03:58;22.45;;;12.75;;
74656;SDS011;63185;45.642;13.764;2023-03-23T08:06:24;18.23;;;12.98;;
74656;SDS011;63185;45.642;13.764;2023-03-23T08:08:51;19.85;;;13.13;;
74656;SDS011;63185;45.642;13.764;2023-03-23T08:11:18;21.38;;;13.00;;
74656;SDS011;63185;45.642;13.764;2023-03-23T08:13:45;18.52;;;13.23;;
74656;SDS011;63185;45.642;13.764;2023-03-23T08:16:11;19.15;;;12.68;;
74656;SDS011;63185;45.642;13.764;2023-03-23T08:18:38;20.48;;;12.77;;
74656;SDS011;63185;45.642;13.764;2023-03-23T08:21:05;17.75;;;12.43;;
74656;SDS011;63185;45.642;13.764;2023-03-23T08:23:34;17.15;;;11.73;;
74656;SDS011;63185;45.642;13.764;2023-03-23T08:26:01;17.50;;;12.00;;
74656;SDS011;63185;45.642;13.764;2023-03-23T08:28:28;20.20;;;12.32;;
74656;SDS011;63185;45.642;13.764;2023-03-23T08:30:54;17.33;;;12.40;;
74656;SDS011;63185;45.642;13.764;2023-03-23T08:33:20;17.48;;;11.35;;
74656;SDS011;63185;45.642;13.764;2023-03-23T08:35:53;17.08;;;10.73;;
74656;SDS011;63185;45.642;13.764;2023-03-23T08:38:20;16.15;;;10.52;;
74656;SDS011;63185;45.642;13.764;2023-03-23T08:40:46;19.08;;;10.52;;
74656;SDS011;63185;45.642;13.764;2023-03-23T08:43:12;17.02;;;11.25;;
74656;SDS011;63185;45.642;13.764;2023-03-23T08:45:38;15.77;;;10.68;;
74656;SDS011;63185;45.642;13.764;2023-03-23T08:48:04;17.30;;;10.60;;
74656;SDS011;63185;45.642;13.764;2023-03-23T08:50:32;17.80;;;10.10;;
74656;SDS011;63185;45.642;13.764;2023-03-23T08:52:58;20.83;;;11.27;;
74656;SDS011;63185;45.642;13.764;2023-03-23T08:55:24;16.95;;;10.80;;
74656;SDS011;63185;45.642;13.764;2023-03-23T08:57:51;14.98;;;9.65;;
74656;SDS011;63185;45.642;13.764;2023-03-23T09:00:18;15.68;;;10.65;;
74656;SDS011;63185;45.642;13.764;2023-03-23T09:02:47;17.77;;;10.45;;
74656;SDS011;63185;45.642;13.764;2023-03-23T09:05:15;21.77;;;11.23;;
74656;SDS011;63185;45.642;13.764;2023-03-23T09:07:42;20.65;;;10.73;;
74656;SDS011;63185;45.642;13.764;2023-03-23T09:10:11;16.93;;;9.97;;
74656;SDS011;63185;45.642;13.764;2023-03-23T09:12:38;18.95;;;10.50;;
74656;SDS011;63185;45.642;13.764;2023-03-23T09:15:05;19.27;;;9.45;;
74656;SDS011;63185;45.642;13.764;2023-03-23T09:17:41;14.00;;;9.43;;
74656;SDS011;63185;45.642;13.764;2023-03-23T09:20:10;19.20;;;10.75;;
74656;SDS011;63185;45.642;13.764;2023-03-23T09:22:39;17.05;;;11.07;;
74656;SDS011;63185;45.642;13.764;2023-03-23T09:25:10;16.00;;;11.02;;
74656;SDS011;63185;45.642;13.764;2023-03-23T09:27:38;18.23;;;10.43;;
74656;SDS011;63185;45.642;13.764;2023-03-23T09:30:06;19.75;;;10.68;;
74656;SDS011;63185;45.642;13.764;2023-03-23T09:32:35;16.35;;;11.50;;
74656;SDS011;63185;45.642;13.764;2023-03-23T09:35:03;15.05;;;10.10;;
74656;SDS011;63185;45.642;13.764;2023-03-23T09:37:33;20.58;;;11.40;;
74656;SDS011;63185;45.642;13.764;2023-03-23T09:40:00;16.90;;;11.02;;
74656;SDS011;63185;45.642;13.764;2023-03-23T09:54:03;18.23;;;10.50;;
74656;SDS011;63185;45.642;13.764;2023-03-23T09:56:42;15.55;;;10.50;;
74656;SDS011;63185;45.642;13.764;2023-03-23T09:59:14;15.23;;;9.18;;
74656;SDS011;63185;45.642;13.764;2023-03-23T10:01:47;17.77;;;9.73;;
74656;SDS011;63185;45.642;13.764;2023-03-23T10:04:29;16.15;;;10.55;;
74656;SDS011;63185;45.642;13.764;2023-03-23T10:06:57;14.30;;;9.77;;
74656;SDS011;63185;45.642;13.764;2023-03-23T10:09:25;16.63;;;10.70;;
74656;SDS011;63185;45.642;13.764;2023-03-23T10:14:55;13.93;;;10.45;;
74656;SDS011;63185;45.642;13.764;2023-03-23T10:17:36;15.77;;;10.10;;
74656;SDS011;63185;45.642;13.764;2023-03-23T10:22:41;15.65;;;10.38;;
74656;SDS011;63185;45.642;13.764;2023-03-23T10:30:26;14.35;;;9.13;;
74656;SDS011;63185;45.642;13.764;2023-03-23T10:32:53;14.57;;;8.50;;
74656;SDS011;63185;45.642;13.764;2023-03-23T10:35:28;13.38;;;8.88;;
74656;SDS011;63185;45.642;13.764;2023-03-23T10:38:01;20.25;;;10.07;;
74656;SDS011;63185;45.642;13.764;2023-03-23T10:40:34;17.17;;;9.70;;
74656;SDS011;63185;45.642;13.764;2023-03-23T10:43:08;18.02;;;9.73;;
74656;SDS011;63185;45.642;13.764;2023-03-23T10:45:34;15.13;;;9.32;;
74656;SDS011;63185;45.642;13.764;2023-03-23T10:50:54;22.02;;;9.75;;
74656;SDS011;63185;45.642;13.764;2023-03-23T10:55:57;21.00;;;10.25;;
74656;SDS011;63185;45.642;13.764;2023-03-23T10:58:31;21.63;;;10.20;;
74656;SDS011;63185;45.642;13.764;2023-03-23T11:00:59;23.85;;;9.80;;
74656;SDS011;63185;45.642;13.764;2023-03-23T11:03:45;18.67;;;9.85;;
74656;SDS011;63185;45.642;13.764;2023-03-23T11:06:24;19.40;;;9.05;;
74656;SDS011;63185;45.642;13.764;2023-03-23T11:08:57;18.23;;;9.77;;
74656;SDS011;63185;45.642;13.764;2023-03-23T11:13:56;18.13;;;9.32;;
74656;SDS011;63185;45.642;13.764;2023-03-23T11:16:30;20.35;;;9.18;;
74656;SDS011;63185;45.642;13.764;2023-03-23T11:19:11;18.83;;;9.52;;
74656;SDS011;63185;45.642;13.764;2023-03-23T11:21:38;16.15;;;8.85;;
74656;SDS011;63185;45.642;13.764;2023-03-23T11:24:07;17.58;;;9.63;;
74656;SDS011;63185;45.642;13.764;2023-03-23T11:26:33;15.35;;;10.35;;
74656;SDS011;63185;45.642;13.764;2023-03-23T11:29:04;16.35;;;10.48;;
74656;SDS011;63185;45.642;13.764;2023-03-23T11:31:36;15.35;;;10.00;;
74656;SDS011;63185;45.642;13.764;2023-03-23T11:34:23;18.00;;;9.60;;
74656;SDS011;63185;45.642;13.764;2023-03-23T11:40:01;15.77;;;9.65;;
74656;SDS011;63185;45.642;13.764;2023-03-23T11:42:43;14.95;;;10.32;;
74656;SDS011;63185;45.642;13.764;2023-03-23T11:45:34;14.55;;;10.05;;
74656;SDS011;63185;45.642;13.764;2023-03-23T11:48:15;16.60;;;10.43;;
74656;SDS011;63185;45.642;13.764;2023-03-23T11:55:53;13.73;;;9.90;;
74656;SDS011;63185;45.642;13.764;2023-03-23T11:58:36;15.10;;;10.30;;
74656;SDS011;63185;45.642;13.764;2023-03-23T12:01:06;17.02;;;9.75;;
74656;SDS011;63185;45.642;13.764;2023-03-23T12:09:37;17.77;;;9.90;;
74656;SDS011;63185;45.642;13.764;2023-03-23T12:14:50;15.10;;;9.75;;
74656;SDS011;63185;45.642;13.764;2023-03-23T12:21:17;16.58;;;9.38;;
74656;SDS011;63185;45.642;13.764;2023-03-23T12:23:56;13.48;;;8.68;;
74656;SDS011;63185;45.642;13.764;2023-03-23T12:26:20;15.60;;;8.70;;
74656;SDS011;63185;45.642;13.764;2023-03-23T12:48:13;15.10;;;7.47;;
74656;SDS011;63185;45.642;13.764;2023-03-23T12:53:58;14.43;;;7.82;;
74656;SDS011;63185;45.642;13.764;2023-03-23T12:56:35;12.35;;;7.18;;
74656;SDS011;63185;45.642;13.764;2023-03-23T12:59:19;16.15;;;8.40;;
74656;SDS011;63185;45.642;13.764;2023-03-23T13:02:18;20.55;;;9.13;;
74656;SDS011;63185;45.642;13.764;2023-03-23T13:04:50;17.00;;;6.90;;
74656;SDS011;63185;45.642;13.764;2023-03-23T13:07:25;10.63;;;6.43;;
74656;SDS011;63185;45.642;13.764;2023-03-23T13:12:29;13.60;;;7.38;;
74656;SDS011;63185;45.642;13.764;2023-03-23T13:25:55;17.30;;;9.82;;
74656;SDS011;63185;45.642;13.764;2023-03-23T13:28:31;17.85;;;9.70;;
74656;SDS011;63185;45.642;13.764;2023-03-23T13:31:17;17.83;;;9.85;;
74656;SDS011;63185;45.642;13.764;2023-03-23T13:33:50;18.77;;;9.52;;
74656;SDS011;63185;45.642;13.764;2023-03-23T13:36:23;19.40;;;9.98;;
74656;SDS011;63185;45.642;13.764;2023-03-23T13:38:55;16.38;;;9.65;;
74656;SDS011;63185;45.642;13.764;2023-03-23T13:41:24;18.35;;;8.70;;
74656;SDS011;63185;45.642;13.764;2023-03-23T13:43:51;18.27;;;8.65;;
74656;SDS011;63185;45.642;13.764;2023-03-23T13:56:50;12.27;;;6.75;;
74656;SDS011;63185;45.642;13.764;2023-03-23T13:59:35;14.30;;;6.70;;
74656;SDS011;63185;45.642;13.764;2023-03-23T14:05:50;15.63;;;7.38;;
74656;SDS011;63185;45.642;13.764;2023-03-23T14:10:38;18.08;;;8.50;;
74656;SDS011;63185;45.642;13.764;2023-03-23T14:13:04;20.23;;;10.02;;
74656;SDS011;63185;45.642;13.764;2023-03-23T14:15:45;19.60;;;10.70;;
74656;SDS011;63185;45.642;13.764;2023-03-23T14:18:21;22.55;;;10.77;;
74656;SDS011;63185;45.642;13.764;2023-03-23T14:20:49;21.27;;;12.93;;
74656;SDS011;63185;45.642;13.764;2023-03-23T14:23:18;20.05;;;11.35;;
74656;SDS011;63185;45.642;13.764;2023-03-23T14:25:45;16.25;;;8.88;;
74656;SDS011;63185;45.642;13.764;2023-03-23T14:28:39;13.65;;;7.63;;
74656;SDS011;63185;45.642;13.764;2023-03-23T14:31:20;15.52;;;9.77;;
74656;SDS011;63185;45.642;13.764;2023-03-23T14:33:49;15.32;;;9.20;;
74656;SDS011;63185;45.642;13.764;2023-03-23T14:36:20;13.18;;;7.35;;
74656;SDS011;63185;45.642;13.764;2023-03-23T14:41:42;13.40;;;8.95;;
74656;SDS011;63185;45.642;13.764;2023-03-23T14:44:13;13.18;;;7.63;;
74656;SDS011;63185;45.642;13.764;2023-03-23T14:46:43;17.83;;;8.70;;
74656;SDS011;63185;45.642;13.764;2023-03-23T14:49:10;14.07;;;8.20;;
74656;SDS011;63185;45.642;13.764;2023-03-23T14:51:48;13.30;;;8.30;;
74656;SDS011;63185;45.642;13.764;2023-03-23T14:54:18;17.98;;;10.80;;
74656;SDS011;63185;45.642;13.764;2023-03-23T14:56:54;16.73;;;10.20;;
74656;SDS011;63185;45.642;13.764;2023-03-23T14:59:20;16.27;;;8.82;;
74656;SDS011;63185;45.642;13.764;2023-03-23T15:01:47;14.02;;;8.05;;
74656;SDS011;63185;45.642;13.764;2023-03-23T15:04:19;12.88;;;6.30;;
74656;SDS011;63185;45.642;13.764;2023-03-23T15:06:54;12.48;;;6.65;;
74656;SDS011;63185;45.642;13.764;2023-03-23T15:09:23;13.98;;;8.35;;
74656;SDS011;63185;45.642;13.764;2023-03-23T15:11:51;15.30;;;7.13;;
74656;SDS011;63185;45.642;13.764;2023-03-23T15:14:26;10.43;;;5.85;;
74656;SDS011;63185;45.642;13.764;2023-03-23T15:16:58;12.07;;;6.72;;
74656;SDS011;63185;45.642;13.764;2023-03-23T15:19:31;14.23;;;6.80;;
74656;SDS011;63185;45.642;13.764;2023-03-23T15:22:07;10.05;;;5.57;;
74656;SDS011;63185;45.642;13.764;2023-03-23T15:24:41;10.00;;;5.43;;
74656;SDS011;63185;45.642;13.764;2023-03-23T15:27:14;7.85;;;4.20;;
74656;SDS011;63185;45.642;13.764;2023-03-23T15:30:11;8.50;;;4.40;;
74656;SDS011;63185;45.642;13.764;2023-03-23T15:35:19;10.10;;;5.75;;
74656;SDS011;63185;45.642;13.764;2023-03-23T15:38:03;10.18;;;5.60;;
74656;SDS011;63185;45.642;13.764;2023-03-23T15:40:35;16.23;;;7.43;;
74656;SDS011;63185;45.642;13.764;2023-03-23T15:48:31;8.93;;;5.25;;
74656;SDS011;63185;45.642;13.764;2023-03-23T15:51:20;7.05;;;4.28;;
74656;SDS011;63185;45.642;13.764;2023-03-23T15:53:48;6.03;;;4.18;;
74656;SDS011;63185;45.642;13.764;2023-03-23T15:56:16;7.68;;;4.53;;
74656;SDS011;63185;45.642;13.764;2023-03-23T15:58:43;10.20;;;6.07;;
74656;SDS011;63185;45.642;13.764;2023-03-23T16:01:13;9.20;;;5.63;;
74656;SDS011;63185;45.642;13.764;2023-03-23T16:04:26;12.07;;;6.53;;
74656;SDS011;63185;45.642;13.764;2023-03-23T16:06:31;12.70;;;7.50;;
74656;SDS011;63185;45.642;13.764;2023-03-23T16:08:58;12.68;;;7.22;;
74656;SDS011;63185;45.642;13.764;2023-03-23T16:11:25;10.07;;;6.38;;
74656;SDS011;63185;45.642;13.764;2023-03-23T16:13:52;10.88;;;5.93;;
74656;SDS011;63185;45.642;13.764;2023-03-23T16:16:30;12.85;;;7.35;;
74656;SDS011;63185;45.642;13.764;2023-03-23T16:19:01;10.45;;;6.20;;
74656;SDS011;63185;45.642;13.764;2023-03-23T16:21:28;8.77;;;5.07;;
74656;SDS011;63185;45.642;13.764;2023-03-23T16:23:53;8.38;;;4.78;;
74656;SDS011;63185;45.642;13.764;2023-03-23T16:26:20;6.72;;;4.00;;
74656;SDS011;63185;45.642;13.764;2023-03-23T16:28:46;7.93;;;4.00;;
74656;SDS011;63185;45.642;13.764;2023-03-23T16:31:11;7.57;;;4.20;;
74656;SDS011;63185;45.642;13.764;2023-03-23T16:33:37;5.45;;;3.90;;
74656;SDS011;63185;45.642;13.764;2023-03-23T16:36:03;7.88;;;5.35;;
74656;SDS011;63185;45.642;13.764;2023-03-23T16:38:29;10.25;;;5.60;;
74656;SDS011;63185;45.642;13.764;2023-03-23T16:40:55;7.28;;;4.97;;
74656;SDS011;63185;45.642;13.764;2023-03-23T16:43:21;41.17;;;7.53;;
74656;SDS011;63185;45.642;13.764;2023-03-23T16:45:47;5.97;;;4.18;;
74656;SDS011;63185;45.642;13.764;2023-03-23T16:48:13;7.60;;;4.35;;
74656;SDS011;63185;45.642;13.764;2023-03-23T16:50:40;9.85;;;3.65;;
74656;SDS011;63185;45.642;13.764;2023-03-23T16:53:07;5.82;;;3.30;;
74656;SDS011;63185;45.642;13.764;2023-03-23T16:55:33;4.97;;;3.17;;
74656;SDS011;63185;45.642;13.764;2023-03-23T16:58:00;8.88;;;3.63;;
74656;SDS011;63185;45.642;13.764;2023-03-23T17:00:26;6.85;;;3.42;;
74656;SDS011;63185;45.642;13.764;2023-03-23T17:02:53;5.50;;;3.05;;